Airfield :
LOGIN :

Register | Disclaimer

   EN    FR    IT 

 










Legend :    VFR   Marginal VFR   IFR   Intensive IFR   Very Intensive IFR
Visi :
Ceiling :
>= 8 km
>= 3000ft
5 to 8 km
1000 to 3000 ft
1500m to 5 km
500 to 1000 ft
800 to 1500m
200 to 500 ft
< 800m
< 200 ft
Symbols :   Thunderstorms  Fog  Heavy snow  Heavy precipitations  Wind > 20 kt
SIGMETs :     Misc.  Thunderstorms  Icing  Turbulence  Mountain Waves  Volcanic Ashes







- Airport Elevation : 17 ft
- IATA code : GRQ


EHGG - Groningen Eelde

CURRENT METAR :
  • 191025Z AUTO 25013KT 220V280 9999 -RADZ SCT011 BKN013 OVC017 07/05 Q1015 BECMG BKN015

EXPIRED METARs :
  • 190955Z AUTO 24015KT 9999 BKN011 OVC013 07/05 Q1015 BECMG BKN015
  • 190925Z AUTO 24013KT 200V260 9999 SCT010 BKN012 OVC015 07/05 Q1014 BECMG BKN015
  • 190855Z AUTO 23013KT 200V260 9999 FEW009 BKN010 OVC013 07/05 Q1014 BECMG BKN015
  • 190825Z AUTO 23013KT 9999 FEW008 SCT009 BKN010 06/05 Q1014 BECMG BKN015
  • 190755Z AUTO 23013KT 9999 FEW008 BKN010 BKN012 06/05 Q1014 BECMG BKN015

TAF COR TAF EHGG
Valid from the 19 at 06:00 until the 20 at 12:00 UTC


190514Z 1906/2012 23013KT 8000 NSC
PROB40 1906/1910 5000 BKN008
BECMG 1907/1910 BKN012
BECMG 1910/1913 9999 BKN015
PROB30
TEMPO 1910/1916 25015G25KT 7000 -SHRA SCT008 BKN012 SCT015TCU
BECMG 1916/1919 22008KT
PROB40 1922/2009 6000 BKN006
No reported NOTAMs for that airfield.



MET'MAP, your aeronautical weather chart ! - Copyright ORBIFLY December 2007 - Disclaimer

ORBIFLY MET'MAP TEAM :

Programming & Development : Alexandra Zaïnal
Concept & Development : Baudouin d'Aumeries
Co-Development & Prog : Marc-Olivier Méhu
Technical & hardware support : Manuel Goepfert

Contact : metmap@orbifly.com




SOURCES & CREDITS :

   NOAA